LiveATC.Net - Listen to live air traffic control over the Internet! Contact for advertising information

ICAO: KGMU  IATA: GMU   Airport: Greenville Downtown Airport
City: Greenville   State/Province: South Carolina
Country: United States   Continent: North America
KGMU METAR Weather: KGMU 070753Z AUTO 00000KT 10SM CLR 13/10 A3006 RMK AO2 SLP172 T01280100
KGMU Flight Activity (FlightAware)
KGMU Airport Info   (AirNav) (iFlightPlanner)
KGMU VFR Sectional Chart   (iFlightPlanner) 
KGMU IFR Low Chart   (iFlightPlanner) 
KGMU Tower
Feed Status: DOWN
Last heard on: 2015-09-18 16:25:03 (18 days 16 hours 0 minutes ago)
KGMU Tower Audio Archives
Greenville Tower119.900


Unauthorized use prohibited. See Terms of Service

Find LiveATC Audio Streams

Airport/ARTCC Code

(e.g., 124.400, 128.75)
Site-wide search

Browse LiveATC Feeds
LiveATC Coverage Map
Top 50 LiveATC Feeds
Bad Weather Areas

Offer a LiveATC Feed
Press Inquiries

LiveATC on iPhone
LiveATC on Android

LiveATC Mobile
(Mobile browser)

ATC Audio Archives
Interesting Recordings

LiveATC Forums

Home Page
Make a Donation
LiveATC Bookstore

Terms of Use
Privacy Policy

ATC/Radar Sites
U.S. ARTCC Freqs
Canadian Air Freqs


FAA Airport Status
Nat'l Airspace Status
Arrival Demand Charts

Server Software By:

Please make a donation to help us keep growing!